New Berlin, IL (62670)

10:34 PM CDT on August 26, 2016 (GMT -0500)
Smith Farms | | Change Station

Elev 656 ft 39.72 °N, 89.92 °W | Updated 11 minutes ago

Partly Cloudy
Partly Cloudy
72.5 °F
Feels Like 72.5 °F
N
4.7
Wind Variable Wind from SSW

Today
High -- | Low -- °F
--% Chance of Precip.
Yesterday
High -- | Low -- °F
Precip. -- in
Pressure 30.05 in
Visibility 10.0 miles
Clouds Few 12000 ft
Dew Point 71 °F
Humidity 95%
Rainfall 0.00 in
Snow Depth Not available.
6:22 AM 7:39 PM
Waning Crescent, 28% visible
METAR KSPI 270252Z 13003KT 10SM FEW120 23/22 A3006 RMK AO2 SLP175 60000 T02330217 58001
Pressure 30.05 in
Visibility 10.0 miles
Clouds Few 12000 ft
Dew Point 71 °F
Humidity 95%
Rainfall 0.00 in
Snow Depth Not available.
6:22 AM 7:39 PM
Waning Crescent, 28% visible
METAR KSPI 270252Z 13003KT 10SM FEW120 23/22 A3006 RMK AO2 SLP175 60000 T02330217 58001

10-Day Weather Forecast

Almanac

Astronomy

Aug. 26, 2016 Rise Set
Actual Time
Civil Twilight
Nautical Twilight
Astronomical Twilight
Moon
Length of Visible Light
Length of Day
Tomorrow will be .
, % of the Moon is Illuminated

Today's Extremes

State Highs State Lows

Community

WunderPhotos

Upload Photos

1,935,289 photos uploaded!

WunderBlog® & News

Nearby

Air Quality

  Air Quality AQ Index Pollutant
Not available.

Snow Depth

Station Depth Elevation

Earthquake Activity

City Distance Mag. Time & Date
Minimum magnitude displayed is 2.5.

Coastal Water Temperatures

Place Temperature

Stations

Nearby Weather Stations

Station Location Temp. Windchill Dew Point Humidity Wind Precip. Elev Updated Type
                   

Watches & Warnings

There are currently no watches in effect.